Time;durP1;ratioP1;P1;durP2;ratioP2;P2;SDS_P1;SDS_P2;PMS_P1;PMS_P2;Temp;Humidity;BMP_temperature;BMP_pressure;BME280_temperature;BME280_humidity;BME280_pressure;Samples;Min_cycle;Max_cycle;Signal;HPM_P1;HPM_P2
2021/12/17 00:00:57;;;;;;;20.38;11.02;;;8.40;99.90;;;;;;5031839;28;20042;-80
2021/12/17 00:03:33;;;;;;;17.65;10.27;;;8.40;99.90;;;;;;5028166;28;20029;-82
2021/12/17 00:08:39;;;;;;;18.23;10.82;;;8.60;99.90;;;;;;5027137;28;20026;-82
2021/12/17 00:11:05;;;;;;;19.33;10.25;;;8.60;99.90;;;;;;5030970;28;20017;-82
2021/12/17 00:13:32;;;;;;;20.60;11.38;;;8.60;99.90;;;;;;5027444;28;20029;-84
2021/12/17 00:15:58;;;;;;;16.75;10.23;;;8.70;99.90;;;;;;5029514;28;20056;-83
2021/12/17 00:18:40;;;;;;;17.48;10.35;;;8.70;99.90;;;;;;5030632;28;20395;-82
2021/12/17 00:48:25;;;;;;;14.32;9.27;;;8.90;99.90;;;;;;5034832;28;20036;-78
2021/12/17 00:51:41;;;;;;;18.30;8.75;;;8.90;99.90;;;;;;5032466;28;20033;-80
2021/12/17 00:53:52;;;;;;;18.02;10.45;;;9.10;99.90;;;;;;5030253;28;20468;-82
2021/12/17 00:56:19;;;;;;;15.05;8.25;;;9.00;99.90;;;;;;5027575;28;20064;-77
2021/12/17 00:58:45;;;;;;;19.45;10.35;;;8.90;99.90;;;;;;5031612;28;20037;-79
2021/12/17 01:01:11;;;;;;;15.80;9.65;;;8.90;99.90;;;;;;5033832;28;20443;-78
2021/12/17 01:03:37;;;;;;;16.02;9.90;;;8.80;99.90;;;;;;5029666;28;20032;-79
2021/12/17 01:06:03;;;;;;;17.08;10.70;;;8.90;99.90;;;;;;5027919;28;20248;-80
2021/12/17 01:08:29;;;;;;;13.85;8.90;;;8.80;99.90;;;;;;5028704;28;20530;-80
2021/12/17 01:10:56;;;;;;;16.02;9.35;;;8.90;99.90;;;;;;5026225;28;20036;-81
2021/12/17 01:13:24;;;;;;;15.13;8.07;;;9.00;99.90;;;;;;5034895;28;20028;-85
2021/12/17 01:15:50;;;;;;;15.10;8.80;;;9.10;99.90;;;;;;5030812;28;20033;-83
2021/12/17 01:18:19;;;;;;;15.25;9.00;;;9.10;99.90;;;;;;5029129;28;20043;-80
2021/12/17 01:21:07;;;;;;;12.70;7.40;;;11.60;99.90;;;;;;5025267;28;20021;-80
2021/12/17 01:24:02;;;;;;;12.15;7.78;;;9.20;99.90;;;;;;5027191;28;20061;-80
2021/12/17 01:40:50;;;;;;;9.20;6.15;;;9.00;99.90;;;;;;5032360;28;20022;-80
2021/12/17 01:43:04;;;;;;;11.82;6.28;;;9.10;99.90;;;;;;5029705;28;20031;-79
2021/12/17 01:45:35;;;;;;;7.78;5.20;;;10.10;99.90;;;;;;5028085;28;20187;-80
2021/12/17 01:48:04;;;;;;;8.35;5.88;;;9.10;99.90;;;;;;5027556;28;20057;-80
2021/12/17 01:56:17;;;;;;;9.15;5.72;;;9.10;99.90;;;;;;5027752;28;20072;-81
2021/12/17 02:01:29;;;;;;;13.80;6.85;;;9.10;99.90;;;;;;5028005;28;20067;-80
2021/12/17 02:03:56;;;;;;;10.63;6.82;;;9.00;99.90;;;;;;5033519;28;20042;-81
2021/12/17 02:06:23;;;;;;;8.52;5.70;;;8.90;99.90;;;;;;5032294;28;20060;-84
2021/12/17 02:08:51;;;;;;;8.57;5.38;;;8.90;99.90;;;;;;5043310;28;20048;-84
2021/12/17 02:20:22;;;;;;;9.45;5.90;;;8.80;99.90;;;;;;5035400;28;20083;-81
2021/12/17 02:32:48;;;;;;;8.98;5.80;;;8.90;99.90;;;;;;5029562;28;20036;-82
2021/12/17 02:37:48;;;;;;;8.70;5.25;;;8.90;99.90;;;;;;5028273;28;20033;-79
2021/12/17 02:45:32;;;;;;;8.40;4.85;;;8.90;99.90;;;;;;5030702;28;20022;-82
2021/12/17 02:48:04;;;;;;;8.65;5.47;;;9.50;99.90;;;;;;5028817;28;20026;-83
2021/12/17 02:50:32;;;;;;;10.07;5.60;;;8.90;99.90;;;;;;5030326;28;21059;-81
2021/12/17 02:52:59;;;;;;;10.07;5.90;;;8.80;99.90;;;;;;5030970;28;20040;-81
2021/12/17 02:55:25;;;;;;;7.68;4.45;;;8.80;99.90;;;;;;5026116;28;20369;-78
2021/12/17 02:57:50;;;;;;;9.02;5.43;;;8.90;99.90;;;;;;5029237;28;20053;-81
2021/12/17 03:00:17;;;;;;;7.25;4.60;;;9.00;99.90;;;;;;5031822;28;20072;-78
2021/12/17 03:02:44;;;;;;;8.27;4.43;;;9.40;99.90;;;;;;5027534;28;20034;-83
2021/12/17 03:05:10;;;;;;;7.75;4.18;;;10.40;99.90;;;;;;5024304;28;20395;-82
2021/12/17 03:07:40;;;;;;;10.02;4.82;;;9.10;99.90;;;;;;5030994;28;20308;-81
2021/12/17 03:10:10;;;;;;;7.28;4.82;;;9.00;99.90;;;;;;5028135;28;20053;-79
2021/12/17 03:15:30;;;;;;;8.90;5.50;;;10.10;99.90;;;;;;5034515;28;20034;-79
2021/12/17 03:26:17;;;;;;;9.77;5.40;;;10.30;99.90;;;;;;5000202;28;20048;-79
2021/12/17 03:28:46;;;;;;;7.97;5.22;;;8.90;99.90;;;;;;5048439;28;20038;-80
2021/12/17 03:31:14;;;;;;;7.72;5.18;;;11.60;99.90;;;;;;5032955;28;20398;-81
2021/12/17 03:33:42;;;;;;;8.23;5.18;;;8.90;99.90;;;;;;5039460;28;20478;-83
2021/12/17 03:36:11;;;;;;;8.63;5.53;;;8.80;99.90;;;;;;5034164;28;20114;-80
2021/12/17 03:38:38;;;;;;;7.57;5.35;;;8.80;99.90;;;;;;5030454;28;20036;-81
2021/12/17 03:41:18;;;;;;;8.68;5.15;;;8.80;99.90;;;;;;5034205;28;20662;-78
2021/12/17 03:43:46;;;;;;;9.48;5.65;;;11.30;99.90;;;;;;5033799;28;20026;-80
2021/12/17 03:46:11;;;;;;;8.80;5.25;;;9.10;99.90;;;;;;5028491;28;20056;-82
2021/12/17 03:48:39;;;;;;;9.77;6.63;;;;;;;;;;5043751;28;20305;-81
2021/12/17 03:51:12;;;;;;;10.60;7.38;;;9.10;99.90;;;;;;5034022;28;20030;-82
2021/12/17 03:53:39;;;;;;;9.77;6.43;;;9.80;99.90;;;;;;5029065;28;20025;-80
2021/12/17 03:56:05;;;;;;;11.15;7.50;;;9.50;99.90;;;;;;5032843;28;20033;-85
2021/12/17 03:58:31;;;;;;;11.95;6.95;;;7.80;99.90;;;;;;5031729;28;20029;-83
2021/12/17 04:00:56;;;;;;;10.93;7.18;;;10.20;99.90;;;;;;5028154;28;20026;-81
2021/12/17 04:03:22;;;;;;;12.93;8.13;;;11.40;99.90;;;;;;5035154;28;20035;-81
2021/12/17 04:05:48;;;;;;;11.10;7.07;;;11.10;99.90;;;;;;5029800;28;20034;-80
2021/12/17 04:08:14;;;;;;;10.55;6.85;;;9.70;99.90;;;;;;5028660;28;20036;-78
2021/12/17 04:10:46;;;;;;;10.80;7.00;;;8.80;99.90;;;;;;5033379;28;20123;-82
2021/12/17 04:13:35;;;;;;;12.60;7.47;;;8.80;99.90;;;;;;5033336;28;20022;-80
2021/12/17 04:16:02;;;;;;;10.02;6.50;;;8.90;99.90;;;;;;5033032;28;20141;-81
2021/12/17 04:18:28;;;;;;;10.70;7.05;;;9.00;99.90;;;;;;5028213;28;20018;-81
2021/12/17 04:20:54;;;;;;;11.18;7.28;;;8.90;99.90;;;;;;5033762;28;20116;-84
2021/12/17 04:23:21;;;;;;;11.40;7.55;;;9.00;99.90;;;;;;5032347;28;20029;-81
2021/12/17 04:25:50;;;;;;;11.60;6.90;;;8.80;99.90;;;;;;5031201;28;20036;-82
2021/12/17 04:28:17;;;;;;;11.00;7.07;;;11.30;99.90;;;;;;5035030;28;20626;-82
2021/12/17 04:30:44;;;;;;;9.70;6.95;;;8.60;99.90;;;;;;5025937;28;20123;-80
2021/12/17 04:33:10;;;;;;;12.98;7.57;;;8.90;99.90;;;;;;5028848;28;20092;-80
2021/12/17 04:35:37;;;;;;;13.38;7.90;;;8.90;99.90;;;;;;5033076;28;20183;-80
2021/12/17 04:38:05;;;;;;;10.95;7.28;;;8.80;99.90;;;;;;5033036;28;20032;-82
2021/12/17 04:40:31;;;;;;;10.75;7.15;;;8.80;99.90;;;;;;5035857;28;20076;-81
2021/12/17 04:43:20;;;;;;;11.52;7.20;;;8.80;99.90;;;;;;5033353;28;20025;-80
2021/12/17 04:46:36;;;;;;;11.98;6.97;;;8.90;99.90;;;;;;5036069;28;20033;-81
2021/12/17 04:59:28;;;;;;;10.00;5.75;;;8.80;99.90;;;;;;5031728;28;20135;-80
2021/12/17 05:01:53;;;;;;;10.70;6.97;;;8.80;99.90;;;;;;5034305;28;20543;-79
2021/12/17 05:04:19;;;;;;;9.90;5.75;;;8.80;99.90;;;;;;5034022;28;20053;-79
2021/12/17 05:06:45;;;;;;;9.20;5.55;;;8.80;99.90;;;;;;5043204;28;20052;-81
2021/12/17 05:09:23;;;;;;;8.57;5.57;;;9.90;99.90;;;;;;5039829;28;20084;-82
2021/12/17 05:18:15;;;;;;;9.80;5.75;;;8.80;99.90;;;;;;5032053;28;20021;-82
2021/12/17 05:20:13;;;;;;;6.45;4.35;;;8.80;99.90;;;;;;5031732;28;20037;-83
2021/12/17 05:22:38;;;;;;;7.25;4.65;;;9.00;99.90;;;;;;5028734;28;20431;-81
2021/12/17 05:25:04;;;;;;;6.65;4.30;;;9.00;99.90;;;;;;5028617;28;20065;-81
2021/12/17 05:27:30;;;;;;;8.60;4.38;;;8.90;99.90;;;;;;5030843;28;20362;-82
2021/12/17 05:29:55;;;;;;;6.28;4.07;;;9.00;99.90;;;;;;5031663;28;20026;-80
2021/12/17 05:32:21;;;;;;;7.43;4.35;;;11.40;99.90;;;;;;5034540;28;20018;-81
2021/12/17 05:34:47;;;;;;;6.43;3.90;;;10.90;99.90;;;;;;5030623;28;20029;-79
2021/12/17 05:37:12;;;;;;;5.70;4.20;;;10.10;99.90;;;;;;5032616;28;20029;-82
2021/12/17 05:39:38;;;;;;;6.88;4.70;;;11.80;99.90;;;;;;5033901;28;20391;-81
2021/12/17 05:42:04;;;;;;;6.40;4.15;;;8.90;99.90;;;;;;5029723;28;20034;-82
2021/12/17 05:44:30;;;;;;;6.97;4.38;;;8.80;99.90;;;;;;5031167;28;20550;-78
2021/12/17 05:46:58;;;;;;;8.18;4.75;;;8.70;99.90;;;;;;5025591;28;20022;-82
2021/12/17 05:49:25;;;;;;;7.97;4.18;;;8.70;99.90;;;;;;5027976;28;20025;-82
2021/12/17 05:51:51;;;;;;;8.55;4.30;;;8.70;99.90;;;;;;5030500;28;20028;-79
2021/12/17 05:54:18;;;;;;;8.20;4.57;;;10.20;99.90;;;;;;5029279;28;20032;-78
2021/12/17 05:56:44;;;;;;;6.75;4.50;;;8.60;99.90;;;;;;5031527;28;20414;-81
2021/12/17 05:59:10;;;;;;;9.55;5.25;;;9.50;99.90;;;;;;5029787;28;20033;-81
2021/12/17 06:01:36;;;;;;;8.25;4.70;;;8.90;99.90;;;;;;5041617;28;20048;-81
2021/12/17 06:04:02;;;;;;;7.40;4.28;;;9.90;99.90;;;;;;5026536;28;20037;-81
2021/12/17 06:06:31;;;;;;;5.43;3.85;;;8.60;99.90;;;;;;5022113;28;20168;-82
2021/12/17 06:08:57;;;;;;;5.65;3.92;;;8.70;99.90;;;;;;5027802;28;20101;-81
2021/12/17 06:11:23;;;;;;;5.88;3.67;;;8.80;99.90;;;;;;5032126;28;20493;-83
2021/12/17 06:13:48;;;;;;;5.30;4.03;;;8.80;99.90;;;;;;5028157;28;20037;-82
2021/12/17 06:16:15;;;;;;;5.63;4.03;;;8.80;99.90;;;;;;5031522;28;20514;-84
2021/12/17 06:18:40;;;;;;;7.82;4.50;;;11.40;99.90;;;;;;5041125;28;20044;-81
2021/12/17 06:21:06;;;;;;;8.90;5.05;;;10.00;99.90;;;;;;5021426;28;20117;-82
2021/12/17 06:23:32;;;;;;;6.60;4.22;;;8.70;99.90;;;;;;5027133;28;20122;-81
2021/12/17 06:26:00;;;;;;;6.50;4.35;;;10.90;99.90;;;;;;5030161;28;20034;-83
2021/12/17 06:28:26;;;;;;;6.15;4.18;;;10.60;99.90;;;;;;5033727;28;20059;-81
2021/12/17 06:30:51;;;;;;;9.05;4.97;;;10.60;99.90;;;;;;5028222;28;20021;-83
2021/12/17 06:33:17;;;;;;;6.88;4.80;;;;;;;;;;5051367;28;20029;-81
2021/12/17 06:35:43;;;;;;;8.30;5.00;;;8.40;99.90;;;;;;5032827;28;20053;-82
2021/12/17 06:38:09;;;;;;;7.25;4.43;;;10.40;99.90;;;;;;5031047;28;20038;-84
2021/12/17 06:40:34;;;;;;;8.45;5.32;;;10.90;99.90;;;;;;5026744;28;20025;-80
2021/12/17 06:43:00;;;;;;;8.43;5.13;;;10.70;99.90;;;;;;5028981;28;20079;-80
2021/12/17 06:45:44;;;;;;;9.93;5.10;;;8.40;99.90;;;;;;5024092;28;20033;-84
2021/12/17 06:48:10;;;;;;;8.32;5.30;;;8.30;99.90;;;;;;5030997;28;20062;-80
2021/12/17 06:59:33;;;;;;;9.50;5.90;;;8.30;99.90;;;;;;5031263;28;20041;-81
2021/12/17 07:05:57;;;;;;;9.68;5.95;;;8.30;99.90;;;;;;5027033;28;20491;-82
2021/12/17 07:17:58;;;;;;;8.88;4.35;;;8.10;99.90;;;;;;5033824;28;20040;-82
2021/12/17 07:23:23;;;;;;;7.55;5.18;;;8.10;99.90;;;;;;5027247;28;20029;-83
2021/12/17 07:32:13;;;;;;;8.85;5.22;;;8.10;99.90;;;;;;5027828;28;20026;-80
2021/12/17 07:33:59;;;;;;;9.25;5.72;;;8.10;99.90;;;;;;5029203;28;20025;-81
2021/12/17 07:36:25;;;;;;;10.50;6.25;;;8.00;99.90;;;;;;5025927;28;20225;-82
2021/12/17 07:38:51;;;;;;;9.82;5.68;;;8.00;99.90;;;;;;5029296;28;20049;-78
2021/12/17 07:41:18;;;;;;;9.32;5.97;;;8.00;99.90;;;;;;5028666;28;20033;-79
2021/12/17 07:43:56;;;;;;;10.38;6.10;;;8.70;99.90;;;;;;5024300;28;20061;-81
2021/12/17 07:46:22;;;;;;;12.75;7.80;;;7.90;99.90;;;;;;5028828;28;20030;-84
2021/12/17 07:48:49;;;;;;;10.05;6.55;;;7.80;99.90;;;;;;5030015;28;20044;-84
2021/12/17 07:51:17;;;;;;;10.52;6.82;;;7.80;99.90;;;;;;5031180;28;20381;-79
2021/12/17 07:53:43;;;;;;;23.27;12.43;;;7.80;99.90;;;;;;5026580;28;20042;-78
2021/12/17 07:56:12;;;;;;;11.65;7.05;;;10.10;99.90;;;;;;5026704;28;20029;-82
2021/12/17 07:58:38;;;;;;;11.48;6.72;;;7.80;99.90;;;;;;5027317;28;20026;-82
2021/12/17 08:01:05;;;;;;;11.90;7.05;;;7.80;99.90;;;;;;5026986;28;20055;-84
2021/12/17 08:03:30;;;;;;;12.20;7.78;;;7.90;99.90;;;;;;5024849;28;20026;-84
2021/12/17 08:05:57;;;;;;;9.52;6.63;;;7.80;99.90;;;;;;5025117;28;20034;-86
2021/12/17 08:08:23;;;;;;;10.43;7.10;;;10.10;99.90;;;;;;5032453;28;20029;-83
2021/12/17 08:10:49;;;;;;;11.40;6.97;;;7.80;99.90;;;;;;5028534;28;20018;-83
2021/12/17 08:13:25;;;;;;;10.40;7.38;;;7.80;99.90;;;;;;5031365;28;20152;-83
2021/12/17 08:16:14;;;;;;;11.98;7.55;;;9.50;99.90;;;;;;5028855;28;20424;-83
2021/12/17 08:31:34;;;;;;;11.57;7.00;;;9.60;99.90;;;;;;5029267;28;20024;-87
2021/12/17 08:34:02;;;;;;;12.40;7.28;;;8.10;99.90;;;;;;5032201;28;20030;-83
2021/12/17 08:36:29;;;;;;;9.65;6.85;;;8.10;99.90;;;;;;5030213;28;20033;-83
2021/12/17 08:38:54;;;;;;;10.90;6.40;;;8.20;99.90;;;;;;5030637;28;20053;-88
2021/12/17 08:41:21;;;;;;;15.02;7.53;;;8.10;99.90;;;;;;5027975;28;20071;-85
2021/12/17 08:43:47;;;;;;;13.40;7.18;;;8.90;99.90;;;;;;5044467;28;20025;-87
2021/12/17 08:46:13;;;;;;;11.10;6.28;;;8.00;99.90;;;;;;5028648;28;20036;-84
2021/12/17 08:48:38;;;;;;;10.43;6.63;;;8.50;99.90;;;;;;5026583;28;20033;-81
2021/12/17 08:51:06;;;;;;;11.15;6.93;;;8.20;99.90;;;;;;5026129;28;20022;-81
2021/12/17 08:53:32;;;;;;;13.57;6.78;;;8.10;99.90;;;;;;5023107;28;20085;-85
2021/12/17 08:55:58;;;;;;;10.32;6.45;;;8.10;99.90;;;;;;5021769;28;20117;-84
2021/12/17 08:58:24;;;;;;;9.93;6.25;;;9.10;99.90;;;;;;5036391;28;20045;-83
2021/12/17 09:00:50;;;;;;;10.80;6.57;;;8.10;99.90;;;;;;5042376;28;20034;-86
2021/12/17 09:03:15;;;;;;;10.07;6.40;;;8.10;99.90;;;;;;5026378;28;20068;-83
2021/12/17 09:05:43;;;;;;;10.77;5.97;;;8.10;99.90;;;;;;5029841;28;20036;-84
2021/12/17 09:08:11;;;;;;;9.68;6.05;;;10.00;99.90;;;;;;5028397;28;20021;-83
2021/12/17 09:10:37;;;;;;;10.85;5.70;;;8.50;99.90;;;;;;5029573;28;20034;-80
2021/12/17 09:13:04;;;;;;;11.43;6.70;;;8.10;99.90;;;;;;5028496;28;20025;-82
2021/12/17 09:15:30;;;;;;;12.38;6.45;;;8.00;99.90;;;;;;5031327;28;20124;-81
2021/12/17 09:17:56;;;;;;;8.57;5.55;;;8.00;99.90;;;;;;5031853;28;20073;-83
2021/12/17 09:20:22;;;;;;;11.85;5.75;;;7.90;99.90;;;;;;5027186;28;20487;-83
2021/12/17 09:22:47;;;;;;;9.43;6.30;;;8.40;99.90;;;;;;5028599;28;20507;-83
2021/12/17 09:25:14;;;;;;;9.85;6.25;;;7.90;99.90;;;;;;5034120;28;20037;-83
2021/12/17 09:27:41;;;;;;;10.30;6.82;;;7.90;99.90;;;;;;5029510;28;20467;-82
2021/12/17 09:30:10;;;;;;;9.82;6.53;;;7.90;99.90;;;;;;5027852;28;20494;-84
2021/12/17 09:32:38;;;;;;;11.23;6.25;;;8.00;99.90;;;;;;5023554;28;20055;-82
2021/12/17 09:35:04;;;;;;;10.15;5.78;;;8.00;99.90;;;;;;5027234;28;20037;-81
2021/12/17 09:37:30;;;;;;;12.68;7.00;;;8.10;99.90;;;;;;5030834;28;20025;-82
2021/12/17 09:39:56;;;;;;;9.60;6.20;;;8.00;99.90;;;;;;5025584;28;20030;-84
2021/12/17 09:42:21;;;;;;;10.55;7.13;;;8.10;99.90;;;;;;5022036;28;20030;-82
2021/12/17 09:44:47;;;;;;;12.57;6.70;;;8.70;99.90;;;;;;5024618;28;20109;-81
2021/12/17 09:47:13;;;;;;;11.18;6.03;;;8.20;99.90;;;;;;5029501;28;20422;-83
2021/12/17 09:49:39;;;;;;;20.73;6.95;;;8.30;99.90;;;;;;5030520;28;20478;-83
2021/12/17 09:52:05;;;;;;;10.52;6.65;;;8.40;99.90;;;;;;5026063;28;20493;-82
2021/12/17 09:54:31;;;;;;;11.70;6.57;;;8.30;99.90;;;;;;5027985;28;20021;-81
2021/12/17 09:56:56;;;;;;;12.43;6.30;;;8.40;99.90;;;;;;5040486;28;20059;-81
2021/12/17 09:59:22;;;;;;;11.00;7.25;;;8.30;99.90;;;;;;5026691;28;20132;-84
2021/12/17 10:01:48;;;;;;;12.52;6.00;;;8.30;99.90;;;;;;5021520;28;20029;-83
2021/12/17 10:04:29;;;;;;;13.90;5.97;;;8.30;99.90;;;;;;5019587;28;20064;-84
2021/12/17 10:07:22;;;;;;;13.80;6.88;;;8.30;99.90;;;;;;5025963;28;20028;-85
2021/12/17 10:09:54;;;;;;;11.30;6.45;;;8.30;99.90;;;;;;5016894;28;20037;-84
2021/12/17 10:12:26;;;;;;;12.48;6.82;;;8.30;99.90;;;;;;5021270;28;20434;-83
2021/12/17 10:15:04;;;;;;;19.83;7.35;;;8.30;99.90;;;;;;5023686;28;20032;-85
2021/12/17 10:17:30;;;;;;;12.50;6.95;;;8.30;99.90;;;;;;5017259;28;20033;-83
2021/12/17 10:19:57;;;;;;;9.13;6.75;;;8.40;99.90;;;;;;5022071;28;20029;-82
2021/12/17 10:22:25;;;;;;;9.75;6.30;;;8.40;99.90;;;;;;5023856;28;20033;-82
2021/12/17 10:25:09;;;;;;;9.32;6.00;;;8.50;99.90;;;;;;5017833;28;20030;-81
2021/12/17 10:27:38;;;;;;;8.90;5.72;;;8.60;99.90;;;;;;5022246;28;20124;-84
2021/12/17 10:30:21;;;;;;;13.52;6.95;;;8.70;99.90;;;;;;5020030;28;20028;-83
2021/12/17 10:32:55;;;;;;;9.70;5.75;;;8.80;99.90;;;;;;5021318;28;20025;-82
2021/12/17 10:35:24;;;;;;;9.80;6.07;;;8.80;99.90;;;;;;5022006;28;20066;-82
2021/12/17 10:38:03;;;;;;;10.18;5.78;;;8.80;99.90;;;;;;5021016;28;21299;-85
2021/12/17 10:40:47;;;;;;;9.27;5.82;;;8.90;99.90;;;;;;5028033;28;20022;-84
2021/12/17 10:43:27;;;;;;;8.07;5.00;;;9.00;99.90;;;;;;5023238;28;20030;-86
2021/12/17 10:46:06;;;;;;;9.30;5.03;;;9.00;99.90;;;;;;5019188;28;20030;-80
2021/12/17 10:48:48;;;;;;;8.52;5.40;;;8.90;99.90;;;;;;5024921;28;20045;-83
2021/12/17 10:51:44;;;;;;;7.50;4.90;;;9.00;99.90;;;;;;5018470;28;20177;-80
2021/12/17 10:54:15;;;;;;;9.40;5.60;;;9.10;99.90;;;;;;5034671;28;20022;-82
2021/12/17 10:56:47;;;;;;;;;;;9.10;99.90;;;;;;5014092;28;20026;-82
2021/12/17 10:59:32;;;;;;;7.80;4.97;;;9.00;99.90;;;;;;5018442;28;20402;-82
2021/12/17 11:02:01;;;;;;;10.63;5.40;;;9.00;99.90;;;;;;5016839;28;20044;-81
2021/12/17 11:04:28;;;;;;;8.03;5.10;;;9.10;99.90;;;;;;5020149;28;20021;-80
2021/12/17 11:07:10;;;;;;;8.43;5.80;;;9.10;99.90;;;;;;5018569;28;20056;-80
2021/12/17 11:09:57;;;;;;;8.48;5.68;;;9.00;99.90;;;;;;5026229;28;20028;-83
2021/12/17 11:12:55;;;;;;;13.35;7.00;;;8.90;99.90;;;;;;5029238;28;20033;-84
2021/12/17 11:15:25;;;;;;;8.60;5.10;;;9.00;99.90;;;;;;4986257;28;20041;-86
2021/12/17 11:17:56;;;;;;;8.27;5.40;;;9.10;99.90;;;;;;5020731;28;20033;-84
2021/12/17 11:20:24;;;;;;;8.93;5.32;;;9.10;99.90;;;;;;5020934;28;20038;-79
2021/12/17 11:22:51;;;;;;;7.43;5.03;;;9.00;99.90;;;;;;5023734;28;20099;-82
2021/12/17 11:25:19;;;;;;;8.18;5.78;;;9.40;99.90;;;;;;5021168;28;20075;-84
2021/12/17 11:27:45;;;;;;;7.35;5.18;;;9.20;99.90;;;;;;5019597;28;20022;-81
2021/12/17 11:30:17;;;;;;;7.38;4.50;;;10.30;99.90;;;;;;5022557;28;20045;-85
2021/12/17 11:32:45;;;;;;;8.32;5.15;;;9.20;99.90;;;;;;5027748;28;20462;-85
2021/12/17 11:35:12;;;;;;;7.63;5.28;;;9.30;99.90;;;;;;5025587;28;20112;-83
2021/12/17 11:37:42;;;;;;;8.00;4.97;;;9.20;99.90;;;;;;5027281;28;20069;-81
2021/12/17 11:40:18;;;;;;;10.13;5.15;;;9.20;99.90;;;;;;5038752;28;20366;-79
2021/12/17 11:43:15;;;;;;;7.45;5.35;;;9.20;99.90;;;;;;5019353;28;20037;-83
2021/12/17 11:45:55;;;;;;;7.70;4.80;;;9.20;99.90;;;;;;5049039;28;20035;-83
2021/12/17 11:48:22;;;;;;;7.57;4.35;;;9.30;99.90;;;;;;5021859;28;20022;-80
2021/12/17 11:51:06;;;;;;;10.05;5.30;;;9.30;99.90;;;;;;5026996;28;20233;-80
2021/12/17 11:53:33;;;;;;;5.80;4.07;;;9.20;99.90;;;;;;5024232;28;20037;-82
2021/12/17 11:56:03;;;;;;;7.07;4.25;;;9.20;99.90;;;;;;5027570;28;20048;-80
2021/12/17 11:58:50;;;;;;;7.38;3.92;;;9.20;99.90;;;;;;5025974;28;20025;-81
2021/12/17 12:01:57;;;;;;;7.28;4.10;;;9.20;99.90;;;;;;5022225;28;20491;-79
2021/12/17 12:04:32;;;;;;;6.55;4.45;;;9.30;99.90;;;;;;5042304;28;20041;-83
2021/12/17 12:07:02;;;;;;;6.93;4.00;;;9.20;99.90;;;;;;5028764;28;20403;-78
2021/12/17 12:10:00;;;;;;;6.13;4.32;;;9.20;99.90;;;;;;5029458;28;20034;-78
2021/12/17 12:12:35;;;;;;;7.60;4.05;;;9.20;99.90;;;;;;5024766;28;20084;-79
2021/12/17 12:15:20;;;;;;;5.70;3.58;;;9.00;99.90;;;;;;5028835;28;20388;-82
2021/12/17 12:17:57;;;;;;;5.18;3.40;;;9.40;99.90;;;;;;5024986;28;20144;-81
2021/12/17 12:20:44;;;;;;;6.28;3.70;;;9.40;99.90;;;;;;5028331;28;20029;-79
2021/12/17 12:23:32;;;;;;;6.63;3.90;;;9.30;99.90;;;;;;5028681;28;20034;-81
2021/12/17 12:26:04;;;;;;;7.38;4.00;;;9.20;99.90;;;;;;5027568;28;20038;-82
2021/12/17 12:28:45;;;;;;;5.90;3.78;;;9.20;99.90;;;;;;5024649;28;20051;-80
2021/12/17 12:31:19;;;;;;;6.82;3.60;;;9.40;99.90;;;;;;5028637;28;20112;-79
2021/12/17 12:34:00;;;;;;;6.85;3.65;;;8.20;99.90;;;;;;5028182;28;20055;-82
2021/12/17 12:36:47;;;;;;;6.95;3.85;;;9.40;99.90;;;;;;5021364;28;20033;-82
2021/12/17 12:39:15;;;;;;;5.40;3.50;;;9.40;99.90;;;;;;5029959;28;20033;-82
2021/12/17 12:42:03;;;;;;;6.18;3.83;;;9.40;99.90;;;;;;5022539;28;20025;-80
2021/12/17 12:44:41;;;;;;;9.75;3.60;;;9.30;99.90;;;;;;5018921;28;20044;-86
2021/12/17 12:47:09;;;;;;;8.55;4.38;;;9.50;99.90;;;;;;5021910;28;20037;-83
2021/12/17 12:49:59;;;;;;;7.68;3.90;;;11.40;99.90;;;;;;5022388;28;20030;-80
2021/12/17 12:52:40;;;;;;;5.55;3.72;;;9.40;99.90;;;;;;5010614;28;20080;-82
2021/12/17 12:55:24;;;;;;;;;;;9.40;99.90;;;;;;5026208;28;20083;-83
2021/12/17 12:58:15;;;;;;;6.10;3.60;;;9.50;99.90;;;;;;5019468;28;19924;-84
2021/12/17 13:00:45;;;;;;;6.07;3.78;;;9.40;99.90;;;;;;5010229;28;20049;-85
2021/12/17 13:03:22;;;;;;;9.50;4.13;;;9.40;99.90;;;;;;5023527;28;20030;-82
2021/12/17 13:05:49;;;;;;;8.35;3.55;;;9.40;99.90;;;;;;5023535;28;20479;-82
2021/12/17 13:08:20;;;;;;;8.38;4.18;;;9.50;99.90;;;;;;5022803;28;20026;-83
2021/12/17 13:10:50;;;;;;;6.72;3.58;;;9.40;99.90;;;;;;5027754;28;20156;-86
2021/12/17 13:22:00;;;;;;;6.18;4.00;;;9.50;99.90;;;;;;5020443;28;20037;-86
2021/12/17 13:24:15;;;;;;;6.25;3.80;;;9.50;99.90;;;;;;5012733;28;20038;-83
2021/12/17 13:26:50;;;;;;;7.10;4.50;;;9.50;99.90;;;;;;5021557;28;20080;-81
2021/12/17 13:29:21;;;;;;;6.78;4.38;;;9.50;99.90;;;;;;5019636;28;20083;-81
2021/12/17 13:32:01;;;;;;;6.43;3.65;;;10.30;99.90;;;;;;5021838;28;20018;-82
2021/12/17 13:34:40;;;;;;;6.90;3.97;;;9.70;99.90;;;;;;5021888;28;20021;-78
2021/12/17 13:37:15;;;;;;;7.68;4.40;;;9.70;99.90;;;;;;5022453;28;20052;-82
2021/12/17 13:39:47;;;;;;;8.80;4.78;;;9.70;99.90;;;;;;5023298;28;20037;-85
2021/12/17 13:42:22;;;;;;;6.47;4.15;;;9.60;99.90;;;;;;5022756;28;20033;-81
2021/12/17 13:44:50;;;;;;;6.38;3.85;;;9.60;99.90;;;;;;5029345;28;20122;-82
2021/12/17 13:47:20;;;;;;;6.57;4.18;;;9.60;99.90;;;;;;5027827;28;20067;-81
2021/12/17 13:49:52;;;;;;;7.72;4.25;;;11.00;99.90;;;;;;5025617;28;20034;-80
2021/12/17 13:52:22;;;;;;;9.23;4.70;;;10.10;99.90;;;;;;5022965;28;20040;-83
2021/12/17 13:54:53;;;;;;;8.13;4.77;;;9.50;99.90;;;;;;5019397;28;20033;-81
2021/12/17 13:57:23;;;;;;;9.95;4.70;;;11.00;99.90;;;;;;5022533;28;20684;-82
2021/12/17 13:59:49;;;;;;;11.68;5.28;;;9.50;99.90;;;;;;5034727;28;20034;-85
2021/12/17 14:02:20;;;;;;;7.25;4.50;;;9.60;99.90;;;;;;5017347;28;20056;-82
2021/12/17 14:05:04;;;;;;;6.78;4.45;;;10.60;99.90;;;;;;5016152;28;20033;-82
2021/12/17 14:07:32;;;;;;;8.93;4.88;;;9.60;99.90;;;;;;5025701;28;20518;-83
2021/12/17 14:10:14;;;;;;;8.68;4.82;;;9.60;99.90;;;;;;5025046;28;20033;-82
2021/12/17 14:12:42;;;;;;;8.35;4.47;;;9.50;99.90;;;;;;5025616;28;20025;-83
2021/12/17 14:15:15;;;;;;;9.60;5.20;;;9.50;99.90;;;;;;5018532;28;20036;-82
2021/12/17 14:17:44;;;;;;;7.72;5.00;;;9.40;99.90;;;;;;5020745;28;20053;-79
2021/12/17 14:20:22;;;;;;;8.88;5.32;;;9.30;99.90;;;;;;5037750;28;20029;-79
2021/12/17 14:22:50;;;;;;;10.60;5.72;;;9.30;99.90;;;;;;5022537;28;20044;-79
2021/12/17 14:25:47;;;;;;;9.90;5.57;;;9.40;99.90;;;;;;5021311;28;20065;-82
2021/12/17 14:28:25;;;;;;;8.88;5.50;;;9.30;99.90;;;;;;5022830;28;20057;-80
2021/12/17 14:30:56;;;;;;;10.68;6.40;;;9.30;99.90;;;;;;5036144;28;20034;-83
2021/12/17 14:33:45;;;;;;;12.27;6.47;;;9.30;99.90;;;;;;5022499;28;20048;-79
2021/12/17 14:36:15;;;;;;;10.90;6.40;;;9.40;99.90;;;;;;5004352;28;20045;-82
2021/12/17 14:38:46;;;;;;;7.78;5.32;;;9.40;99.90;;;;;;5024179;28;20030;-81
2021/12/17 14:41:21;;;;;;;11.82;5.95;;;9.50;99.90;;;;;;5022237;28;20041;-78
2021/12/17 14:43:54;;;;;;;10.55;6.65;;;9.40;99.90;;;;;;5016128;28;20484;-80
2021/12/17 14:46:26;;;;;;;8.45;5.93;;;9.30;99.90;;;;;;5017829;28;20033;-79
2021/12/17 15:03:00;;;;;;;17.55;11.05;;;9.00;99.90;;;;;;5029301;28;20168;-81
2021/12/17 15:05:29;;;;;;;9.80;5.75;;;9.00;99.90;;;;;;5028833;28;20116;-80
2021/12/17 15:07:57;;;;;;;8.82;5.97;;;9.60;99.90;;;;;;5027031;28;20071;-82
2021/12/17 15:10:23;;;;;;;8.68;5.70;;;8.90;99.90;;;;;;5025701;28;20105;-79
2021/12/17 15:13:00;;;;;;;8.73;5.68;;;8.90;99.90;;;;;;5030322;28;20026;-78
2021/12/17 15:15:28;;;;;;;9.85;6.63;;;8.90;99.90;;;;;;5028725;28;20096;-79
2021/12/17 15:17:55;;;;;;;9.70;5.95;;;10.30;99.90;;;;;;5037996;28;20032;-81
2021/12/17 15:20:27;;;;;;;11.73;6.57;;;8.80;99.90;;;;;;5031431;28;20061;-82
2021/12/17 15:22:54;;;;;;;9.73;6.45;;;8.80;99.90;;;;;;5030346;28;20447;-80
2021/12/17 15:25:20;;;;;;;10.50;6.40;;;8.80;99.90;;;;;;5032327;28;21456;-82
2021/12/17 15:27:47;;;;;;;10.65;5.97;;;8.70;99.90;;;;;;5028091;28;20017;-81
2021/12/17 15:30:20;;;;;;;10.00;6.45;;;9.40;99.90;;;;;;5029387;28;20029;-81
2021/12/17 15:32:46;;;;;;;9.30;6.15;;;9.40;99.90;;;;;;5034028;28;20029;-83
2021/12/17 15:35:12;;;;;;;10.82;5.78;;;9.60;99.90;;;;;;5035229;28;20059;-79
2021/12/17 15:37:39;;;;;;;11.48;6.55;;;8.70;99.90;;;;;;5029174;28;20021;-80
2021/12/17 15:40:06;;;;;;;9.85;6.00;;;8.60;99.90;;;;;;5032753;28;20025;-82
2021/12/17 15:42:32;;;;;;;8.13;5.20;;;8.50;99.90;;;;;;5031647;28;20032;-81
2021/12/17 15:44:57;;;;;;;11.35;6.30;;;8.50;99.90;;;;;;5031438;28;20035;-81
2021/12/17 15:47:23;;;;;;;10.88;5.78;;;8.50;99.90;;;;;;5029608;28;20029;-81
2021/12/17 15:49:49;;;;;;;11.52;6.40;;;8.00;99.90;;;;;;5034527;28;20060;-82
2021/12/17 15:52:15;;;;;;;9.27;5.25;;;10.60;99.90;;;;;;5032140;28;20036;-82
2021/12/17 15:54:40;;;;;;;10.55;5.55;;;8.40;99.90;;;;;;5011549;28;20037;-82
2021/12/17 15:57:07;;;;;;;8.63;4.85;;;10.10;99.90;;;;;;5027693;28;20131;-82
2021/12/17 15:59:33;;;;;;;8.20;5.30;;;8.40;99.90;;;;;;5029155;28;20037;-84
2021/12/17 16:01:59;;;;;;;9.40;5.32;;;8.30;99.90;;;;;;5026458;28;20305;-82
2021/12/17 16:04:27;;;;;;;12.25;6.50;;;8.20;99.90;;;;;;5023930;28;20463;-81